Aeroporto :
LOGIN :

Iscrizione | Disclaimer

   EN    FR    IT 

 










Sommario :    VFR   VFR Marginale   IFR   IFR Intensivo   IFR Molto Intensivo
Visibilità : 
Base nubi : 
>= 8 km
>= 3000ft
5 / 8 km
1000 / 3000 ft
1500m / 5 km
500 / 1000 ft
800 / 1500m
200 / 500 ft
< 800m
< 200 ft
Simboli :   Temporali  Nebbia  Neve Forte  Precipitazioni Forti  Vento > 20 kt
SIGMETs :   Varie  Temporali  Ghiacco  Turbolenza  Onda orograficha  Ceneri Vulcaniche







- Altitudine del aeroporto : 194 ft
- Codice IATA : IEG


EPZG - Zielona Gora Babimost

ULTIMO METAR :
  • 210830Z 02005KT 340V080 CAVOK 21/13 Q1004

METARs OBSOLETI :
  • 210800Z VRB03KT CAVOK 20/12 Q1004
  • 210730Z VRB04KT CAVOK 20/13 Q1004
  • 210700Z VRB01KT CAVOK 20/13 Q1004
  • 210630Z 00000KT CAVOK 18/14 Q1004
  • 210600Z 00000KT CAVOK 17/13 Q1004

TAF TAF EPZG
Valido dal 21 a 09 ore il 21 a 18 ore UTC


210830Z 2109/2118 VRB02KT CAVOK
PROB40
TEMPO 2113/2115 SCT040CB
BECMG 2115/2117 34010KT
PROB30
TEMPO 2115/2118 VRB15G30KT 4000 TSRA BKN020CB
Nessun NOTAM noto per questo aeroporto.



MetMap, La meteo Aeronautica in un colpo d'occhio ! - Copyright ORBIFLY Dicembre 2007 - Disclaimer

ORBIFLY MET'MAP TEAM :

Programmazione e sviluppo : Alexandra Zaïnal
Concezione e sviluppo : Baudouin d'Aumeries
Co-Programmazione e sviluppo : Marc-Olivier Méhu
Supporto tecnico e logistico : Manuel Goepfert
Aiuto per la traduzione : Arnaldo La Scala

Contatto : metmap@orbifly.com




FONTI E CREDITI :

   NOAA